Time;durP1;ratioP1;P1;durP2;ratioP2;P2;SDS_P1;SDS_P2;PMS_P1;PMS_P2;Temp;Humidity;BMP_temperature;BMP_pressure;BME280_temperature;BME280_humidity;BME280_pressure;Samples;Min_cycle;Max_cycle;Signal;HPM_P1;HPM_P2
2023/07/28 00:01:47;;;;;;;6.95;6.13;;;;;;;18.14;100.00;100409.59;5319529;28;20110;-69
2023/07/28 00:04:18;;;;;;;7.00;6.20;;;;;;;18.19;100.00;100407.19;5312446;28;20038;-69
2023/07/28 00:06:50;;;;;;;7.80;6.30;;;;;;;18.18;100.00;100401.97;5291012;28;20020;-69
2023/07/28 00:09:23;;;;;;;7.95;6.40;;;;;;;18.24;100.00;100403.97;5313912;28;20197;-69
2023/07/28 00:11:58;;;;;;;7.32;6.63;;;;;;;18.19;100.00;100400.94;5315544;28;20082;-69
2023/07/28 00:14:30;;;;;;;6.63;5.93;;;;;;;18.19;100.00;100400.94;5316703;28;20034;-69
2023/07/28 00:17:01;;;;;;;7.68;6.88;;;;;;;18.24;100.00;100395.84;5311971;28;20024;-69
2023/07/28 00:19:32;;;;;;;8.90;6.40;;;;;;;18.21;100.00;100401.59;5316499;28;20548;-69
2023/07/28 00:22:04;;;;;;;6.75;6.05;;;;;;;18.16;100.00;100402.16;5328128;27;20427;-69
2023/07/28 00:24:35;;;;;;;8.32;6.07;;;;;;;18.19;100.00;100401.78;5316051;28;20448;-69
2023/07/28 00:27:06;;;;;;;7.65;6.70;;;;;;;18.18;100.00;100396.56;5307749;27;20020;-69
2023/07/28 00:29:38;;;;;;;7.40;6.00;;;;;;;18.16;100.00;100404.00;5311964;28;20121;-69
2023/07/28 00:32:09;;;;;;;7.25;6.55;;;;;;;18.17;100.00;100394.88;5314336;28;20027;-69
2023/07/28 00:34:40;;;;;;;9.68;7.18;;;;;;;18.20;100.00;100398.06;5315455;28;20076;-69
2023/07/28 00:37:12;;;;;;;7.25;6.47;;;;;;;18.17;100.00;100395.72;5313298;28;20084;-68
2023/07/28 00:39:43;;;;;;;7.70;6.88;;;;;;;18.16;100.00;100402.16;5314175;28;20115;-69
2023/07/28 00:42:15;;;;;;;7.63;6.68;;;;;;;18.17;100.00;100397.59;5317368;28;20045;-70
2023/07/28 00:44:46;;;;;;;8.30;7.43;;;;;;;18.14;100.00;100390.69;5294362;28;20481;-68
2023/07/28 00:47:17;;;;;;;8.60;7.70;;;;;;;18.18;100.00;100393.88;5308709;28;20447;-68
2023/07/28 00:49:49;;;;;;;7.95;6.82;;;;;;;18.17;100.00;100387.63;5307556;28;20078;-68
2023/07/28 00:52:20;;;;;;;8.10;7.05;;;;;;;18.17;100.00;100393.00;5312068;28;20034;-68
2023/07/28 00:54:52;;;;;;;9.48;7.57;;;;;;;18.16;100.00;100388.66;5311154;28;20037;-68
2023/07/28 00:57:23;;;;;;;8.93;7.68;;;;;;;18.16;100.00;100380.56;5312978;28;20060;-69
2023/07/28 00:59:54;;;;;;;8.80;7.68;;;;;;;18.11;100.00;100382.09;5312577;28;20023;-68
2023/07/28 01:02:26;;;;;;;9.77;8.10;;;;;;;18.08;100.00;100385.16;5306554;28;20103;-69
2023/07/28 01:04:58;;;;;;;8.82;7.93;;;;;;;18.09;100.00;100386.84;5304843;28;20094;-69
2023/07/28 01:07:30;;;;;;;9.55;8.30;;;;;;;18.13;100.00;100394.41;5308268;28;20027;-69
2023/07/28 01:10:12;;;;;;;9.23;7.95;;;;;;;18.21;100.00;100391.63;5311942;28;20509;-69
2023/07/28 01:12:44;;;;;;;8.77;7.80;;;;;;;18.17;100.00;100397.59;5310775;28;20112;-68
2023/07/28 01:15:15;;;;;;;7.78;6.88;;;;;;;18.12;100.00;100403.53;5302478;28;20094;-68
2023/07/28 01:17:47;;;;;;;9.80;7.72;;;;;;;18.08;100.00;100395.94;5308110;28;20016;-68
2023/07/28 01:20:18;;;;;;;9.55;7.93;;;;;;;18.15;100.00;100399.63;5315581;28;20035;-68
2023/07/28 01:23:13;;;;;;;11.38;8.82;;;;;;;18.37;100.00;100395.25;5314930;27;20401;-68
2023/07/28 01:25:49;;;;;;;9.57;8.27;;;;;;;18.25;100.00;100402.09;5302013;28;20031;-69
2023/07/28 01:28:22;;;;;;;8.98;7.80;;;;;;;18.22;100.00;100406.84;5301391;28;20028;-68
2023/07/28 01:30:53;;;;;;;8.77;7.68;;;;;;;18.19;100.00;100400.94;5312169;28;20058;-68
2023/07/28 01:33:24;;;;;;;9.55;7.50;;;;;;;18.21;100.00;100402.44;5314648;28;20027;-68
2023/07/28 01:35:56;;;;;;;10.35;7.95;;;;;;;18.15;100.00;100403.16;5307612;28;20373;-68
2023/07/28 01:38:28;;;;;;;9.55;7.88;;;;;;;18.12;100.00;100405.38;5312167;28;20469;-68
2023/07/28 01:40:59;;;;;;;9.50;7.50;;;;;;;18.13;100.00;100405.19;5310811;28;20039;-68
2023/07/28 01:43:31;;;;;;;8.73;7.55;;;;;;;18.14;100.00;100406.03;5312399;28;20100;-68
2023/07/28 01:46:02;;;;;;;10.27;8.00;;;;;;;18.16;100.00;100406.69;5314219;28;20481;-68
2023/07/28 01:48:33;;;;;;;10.15;7.70;;;;;;;18.19;100.00;100409.88;5314058;28;20524;-68
2023/07/28 01:51:05;;;;;;;9.55;8.07;;;;;;;18.13;100.00;100405.19;5316199;28;20031;-69
2023/07/28 01:53:36;;;;;;;9.38;8.23;;;;;;;18.28;100.00;100412.56;5308699;28;20097;-68
2023/07/28 01:56:08;;;;;;;11.55;8.27;;;;;;;18.21;100.00;100415.09;5312927;28;20051;-68
2023/07/28 01:58:39;;;;;;;10.63;8.75;;;;;;;18.16;100.00;100404.84;5315309;28;20129;-68
2023/07/28 02:01:13;;;;;;;11.43;9.52;;;;;;;18.17;100.00;100401.13;5313374;28;20493;-68
2023/07/28 02:03:44;;;;;;;12.10;9.43;;;;;;;18.20;100.00;100406.16;5314797;28;20034;-68
2023/07/28 02:06:15;;;;;;;10.65;8.55;;;;;;;18.21;100.00;100407.84;5308692;28;20031;-68
2023/07/28 02:08:47;;;;;;;11.25;9.73;;;;;;;18.22;100.00;100411.41;5312186;28;20472;-69
2023/07/28 02:11:18;;;;;;;11.68;9.02;;;;;;;18.27;100.00;100403.59;5316872;28;20038;-69
2023/07/28 02:13:50;;;;;;;13.43;9.98;;;;;;;18.18;100.00;100400.09;5318637;28;20528;-69
2023/07/28 02:16:21;;;;;;;13.35;10.38;;;;;;;18.20;100.00;100398.06;5316033;28;20059;-69
2023/07/28 02:18:54;;;;;;;12.95;9.73;;;;;;;18.25;100.00;100392.13;5314353;28;20031;-68
2023/07/28 02:21:25;;;;;;;14.02;10.25;;;;;;;18.26;100.00;100398.38;5321012;28;20031;-69
2023/07/28 02:23:57;;;;;;;13.90;11.18;;;;;;;18.20;100.00;100403.47;5317165;28;20488;-69
2023/07/28 02:26:28;;;;;;;12.65;10.07;;;;;;;18.25;100.00;100405.63;5316529;28;20023;-69
2023/07/28 02:28:59;;;;;;;13.65;10.90;;;;;;;18.21;100.00;100404.31;5317944;28;20092;-68
2023/07/28 02:31:31;;;;;;;13.73;11.48;;;;;;;18.22;100.00;100406.84;5319103;28;20149;-69
2023/07/28 02:34:02;;;;;;;15.75;11.00;;;;;;;18.21;100.00;100407.84;5313049;28;20035;-69
2023/07/28 02:36:33;;;;;;;16.27;11.40;;;;;;;18.25;100.00;100408.31;5320551;28;20164;-69
2023/07/28 02:39:05;;;;;;;14.45;11.23;;;;;;;18.24;100.00;100406.66;5319686;28;20027;-69
2023/07/28 02:41:37;;;;;;;14.93;11.68;;;;;;;18.23;100.00;100402.25;5318221;28;20049;-69
2023/07/28 02:44:08;;;;;;;16.05;12.30;;;;;;;18.26;100.00;100406.50;5315933;28;20146;-69
2023/07/28 02:46:39;;;;;;;17.88;12.35;;;;;;;18.17;100.00;100403.81;5319925;28;20020;-68
2023/07/28 02:49:11;;;;;;;16.60;12.35;;;;;;;18.23;100.00;100404.97;5315800;28;20027;-69
2023/07/28 02:51:42;;;;;;;15.82;12.07;;;;;;;18.26;100.00;100411.88;5318397;28;20097;-69
2023/07/28 02:54:13;;;;;;;17.92;13.15;;;;;;;18.22;100.00;100416.81;5306860;28;20428;-68
2023/07/28 02:56:45;;;;;;;19.60;14.00;;;;;;;18.31;100.00;100423.81;5312822;28;20031;-68
2023/07/28 02:59:16;;;;;;;18.27;13.70;;;;;;;18.18;100.00;100424.41;5319114;28;20099;-68
2023/07/28 03:01:48;;;;;;;20.67;14.30;;;;;;;18.28;100.00;100420.66;5309491;28;20457;-68
2023/07/28 03:04:22;;;;;;;18.75;14.23;;;;;;;18.23;100.00;100427.41;5312757;28;20038;-68
2023/07/28 03:06:54;;;;;;;18.48;13.98;;;;;;;18.19;100.00;100426.06;5320308;28;20424;-68
2023/07/28 03:09:25;;;;;;;20.75;13.82;;;;;;;18.30;100.00;100422.16;5315853;28;20058;-68
2023/07/28 03:11:57;;;;;;;21.35;14.30;;;;;;;18.29;100.00;100425.84;5321284;28;20030;-68
2023/07/28 03:14:29;;;;;;;19.33;14.13;;;;;;;18.33;100.00;100429.03;5310977;28;20561;-69
2023/07/28 03:17:00;;;;;;;22.85;14.38;;;;;;;18.34;100.00;100423.47;5315588;28;20028;-69
2023/07/28 03:19:32;;;;;;;21.98;14.70;;;;;;;18.42;100.00;100422.56;5319184;28;20032;-68
2023/07/28 03:22:03;;;;;;;20.40;14.55;;;;;;;18.45;100.00;100419.53;5310609;28;20027;-68
2023/07/28 03:24:34;;;;;;;19.38;13.95;;;;;;;18.45;100.00;100419.53;5310935;28;20063;-68
2023/07/28 03:27:06;;;;;;;21.77;14.30;;;;;;;18.40;100.00;100432.72;5312869;28;20043;-69
2023/07/28 03:29:37;;;;;;;22.85;15.13;;;;;;;18.36;100.00;100434.09;5315273;28;20457;-68
2023/07/28 03:32:08;;;;;;;24.98;15.63;;;;;;;18.39;100.00;100437.28;5317710;28;20028;-68
2023/07/28 03:34:40;;;;;;;20.08;15.18;;;;;;;18.31;100.00;100436.47;5317055;28;20111;-68
2023/07/28 03:37:11;;;;;;;20.02;14.20;;;;;;;18.36;100.00;100445.72;5315521;28;20030;-68
2023/07/28 03:39:42;;;;;;;24.33;15.30;;;;;;;18.36;100.00;100436.78;5317079;28;20054;-69
2023/07/28 03:42:15;;;;;;;22.48;14.93;;;;;;;18.33;100.00;100435.31;5319664;28;20072;-69
2023/07/28 03:44:46;;;;;;;16.88;12.98;;;;;;;18.32;100.00;100449.81;5314272;28;20522;-69
2023/07/28 03:47:17;;;;;;;22.83;15.05;;;;;;;18.24;100.00;100449.88;5310636;28;20031;-69
2023/07/28 03:49:49;;;;;;;21.38;14.23;;;;;;;18.28;100.00;100456.59;5311081;28;20108;-69
2023/07/28 03:52:20;;;;;;;23.50;14.48;;;;;;;18.35;100.00;100456.72;5317091;28;20038;-68
2023/07/28 03:54:52;;;;;;;20.83;14.95;;;;;;;18.37;100.00;100462.78;5316307;28;20035;-68
2023/07/28 03:57:23;;;;;;;21.52;15.35;;;;;;;18.40;100.00;100465.13;5315439;28;20020;-68
2023/07/28 03:59:55;;;;;;;21.50;14.77;;;;;;;18.34;100.00;100455.88;5316450;28;20016;-69
2023/07/28 04:02:26;;;;;;;22.48;15.45;;;;;;;18.31;100.00;100458.91;5316383;28;20039;-68
2023/07/28 04:04:58;;;;;;;23.15;15.32;;;;;;;18.37;100.00;100466.34;5311836;28;20043;-69
2023/07/28 04:07:29;;;;;;;23.38;15.55;;;;;;;18.36;100.00;100461.09;5306382;28;20028;-69
2023/07/28 04:10:00;;;;;;;21.23;14.40;;;;;;;18.35;100.00;100462.97;5315190;28;20497;-68
2023/07/28 04:12:32;;;;;;;20.58;14.75;;;;;;;18.38;100.00;100462.59;5313940;28;20039;-68
2023/07/28 04:15:04;;;;;;;20.42;15.20;;;;;;;18.33;100.00;100456.91;5307080;28;20149;-68
2023/07/28 04:17:35;;;;;;;20.00;15.00;;;;;;;18.33;100.00;100459.63;5316510;28;20023;-68
2023/07/28 04:20:07;;;;;;;20.25;15.18;;;;;;;18.33;100.00;100453.34;5313278;28;20560;-68
2023/07/28 04:22:38;;;;;;;20.90;14.73;;;;;;;18.38;100.00;100448.25;5315991;28;20023;-69
2023/07/28 04:25:10;;;;;;;19.98;14.43;;;;;;;18.36;100.00;100448.44;5316047;28;20027;-69
2023/07/28 04:27:41;;;;;;;21.98;14.48;;;;;;;18.32;100.00;100448.97;5315159;28;20371;-69
2023/07/28 04:30:12;;;;;;;19.23;14.23;;;;;;;18.36;100.00;100459.25;5320257;28;20023;-68
2023/07/28 04:32:44;;;;;;;18.83;13.55;;;;;;;18.37;100.00;100460.06;5316891;28;20070;-68
2023/07/28 04:35:15;;;;;;;20.85;14.35;;;;;;;18.34;100.00;100458.56;5312080;28;20035;-69
2023/07/28 04:37:47;;;;;;;20.80;14.70;;;;;;;18.40;100.00;100455.16;5314605;28;20437;-69
2023/07/28 04:40:19;;;;;;;21.20;13.88;;;;;;;18.42;100.00;100457.69;5318217;28;20023;-69
2023/07/28 04:42:53;;;;;;;21.67;14.50;;;;;;;18.41;100.00;100458.72;5314202;28;20032;-68
2023/07/28 04:45:24;;;;;;;19.33;14.57;;;;;;;18.41;100.00;100459.56;5298441;28;20421;-68
2023/07/28 04:47:56;;;;;;;18.58;13.60;;;;;;;18.48;100.00;100450.72;5313852;28;20026;-68
2023/07/28 04:50:28;;;;;;;21.73;14.70;;;;;;;18.46;100.00;100450.06;5315919;28;20544;-68
2023/07/28 04:52:59;;;;;;;19.42;14.05;;;;;;;18.52;100.00;100455.59;5312653;28;20096;-68
2023/07/28 04:55:31;;;;;;;23.85;15.68;;;;;;;18.52;100.00;100455.59;5316018;28;20477;-68
2023/07/28 04:58:02;;;;;;;21.95;15.38;;;;;;;18.53;100.00;100459.97;5315631;28;20030;-68
2023/07/28 05:00:34;;;;;;;23.05;15.90;;;;;;;18.55;100.00;100459.81;5313671;28;20488;-69
2023/07/28 05:03:05;;;;;;;21.33;14.82;;;;;;;18.61;100.00;100459.91;5314739;28;20477;-68
2023/07/28 05:05:37;;;;;;;20.25;14.75;;;;;;;18.52;100.00;100455.59;5314008;28;20108;-68
2023/07/28 05:08:08;;;;;;;26.45;16.73;;;;;;;18.46;100.00;100456.31;5310621;28;20036;-68
2023/07/28 05:10:42;;;;;;;20.45;13.57;;;;;;;18.58;100.00;100463.00;5309843;28;20035;-68
2023/07/28 05:13:14;;;;;;;18.73;14.05;;;;;;;18.57;100.00;100466.72;5310193;28;20032;-68
2023/07/28 05:15:45;;;;;;;20.42;14.55;;;;;;;18.56;100.00;100473.16;5316057;28;20473;-68
2023/07/28 05:18:16;;;;;;;22.55;15.23;;;;;;;18.54;100.00;100472.50;5317485;28;20031;-69
2023/07/28 05:20:48;;;;;;;18.73;14.23;;;;;;;18.58;100.00;100473.81;5315807;28;20110;-69
2023/07/28 05:23:19;;;;;;;23.05;15.25;;;;;;;18.57;100.00;100476.69;5317601;28;20080;-68
2023/07/28 05:25:51;;;;;;;17.48;13.52;;;;;;;18.58;100.00;100491.84;5312520;28;20489;-69
2023/07/28 05:28:22;;;;;;;17.58;13.40;;;;;;;18.66;100.00;100488.25;5308404;28;20144;-69
2023/07/28 05:30:53;;;;;;;20.33;15.00;;;;;;;18.64;100.00;100490.31;5312307;28;20154;-68
2023/07/28 05:33:25;;;;;;;21.10;14.65;;;;;;;18.72;100.00;100495.69;5313285;28;20095;-68
2023/07/28 05:36:03;;;;;;;20.90;15.07;;;;;;;18.64;100.00;100498.41;5310685;28;20027;-69
2023/07/28 05:38:34;;;;;;;20.15;15.15;;;;;;;18.76;100.00;100494.28;5315229;28;20032;-69
2023/07/28 05:41:06;;;;;;;28.38;18.33;;;;;;;18.81;100.00;100502.72;5309776;28;20077;-68
2023/07/28 05:43:38;;;;;;;23.35;17.20;;;;;;;18.84;100.00;100499.66;5312409;28;20126;-68
2023/07/28 05:46:09;;;;;;;22.92;17.50;;;;;;;18.87;100.00;100502.03;5315501;27;20481;-68
2023/07/28 05:48:41;;;;;;;25.35;19.35;;;;;;;18.80;100.00;100506.47;5321094;27;20443;-68
2023/07/28 05:51:12;;;;;;;27.77;20.83;;;;;;;18.89;100.00;100502.69;5315228;28;20073;-68
2023/07/28 05:53:44;;;;;;;28.70;21.00;;;;;;;18.91;100.00;100505.22;5316020;28;20038;-68
2023/07/28 05:56:16;;;;;;;33.88;23.63;;;;;;;18.84;100.00;100510.47;5312406;28;20024;-69
2023/07/28 05:58:48;;;;;;;31.27;23.98;;;;;;;18.95;100.00;100511.94;5314552;28;20079;-68
2023/07/28 06:01:19;;;;;;;35.92;23.92;;;;;;;19.00;100.00;100509.50;5318475;28;20798;-68
2023/07/28 06:03:51;;;;;;;38.10;26.50;;;;;;;19.06;100.00;100508.81;5313362;28;20099;-68
2023/07/28 06:06:23;;;;;;;37.30;26.98;;;;;;;19.00;100.00;100506.81;5317205;28;20023;-68
2023/07/28 06:08:54;;;;;;;35.83;26.88;;;;;;;18.95;100.00;100506.53;5313650;28;20098;-68
2023/07/28 06:11:26;;;;;;;40.42;26.38;;;;;;;18.97;100.00;100513.44;5320384;28;20389;-69
2023/07/28 06:13:57;;;;;;;36.40;25.58;;;;;;;19.00;100.00;100509.50;5321972;28;20023;-69
2023/07/28 06:16:29;;;;;;;38.45;26.75;;;;;;;19.06;100.00;100510.66;5317130;28;20085;-69
2023/07/28 06:19:00;;;;;;;39.83;26.65;;;;;;;19.02;100.00;100512.03;5318192;28;20092;-69
2023/07/28 06:21:32;;;;;;;40.33;25.17;;;;;;;19.05;100.00;100512.53;5322864;28;20497;-68
2023/07/28 06:24:03;;;;;;;38.60;25.33;;;;;;;19.03;100.00;100502.91;5318868;28;20024;-69
2023/07/28 06:26:35;;;;;;;37.80;24.20;;;;;;;19.04;100.00;100516.22;5320217;28;20389;-69
2023/07/28 06:29:06;;;;;;;35.75;23.70;;;;;;;19.12;100.00;100516.19;5318181;28;20028;-69
2023/07/28 06:31:37;;;;;;;35.47;23.63;;;;;;;19.20;100.00;100523.41;5318999;28;20031;-68
2023/07/28 06:34:09;;;;;;;32.30;21.85;;;;;;;19.22;100.00;100524.06;5319132;28;20019;-69
2023/07/28 06:36:40;;;;;;;31.15;20.45;;;;;;;19.23;100.00;100520.31;5320112;28;20106;-69
2023/07/28 06:39:12;;;;;;;32.38;19.75;;;;;;;19.27;100.00;100526.19;5319700;28;20087;-68
2023/07/28 06:41:43;;;;;;;28.50;19.55;;;;;;;19.28;100.00;100526.03;5317064;28;20031;-68
2023/07/28 06:44:14;;;;;;;30.80;19.17;;;;;;;19.24;100.00;100527.41;5319383;28;20035;-69
2023/07/28 06:46:47;;;;;;;26.65;18.42;;;;;;;19.25;100.00;100528.25;5317219;28;20020;-69
2023/07/28 06:49:18;;;;;;;25.45;17.15;;;;;;;19.28;100.00;100536.00;5319362;28;20454;-69
2023/07/28 06:51:50;;;;;;;27.95;16.70;;;;;;;19.38;100.00;100532.00;5317312;28;20475;-69
2023/07/28 06:54:21;;;;;;;27.98;17.50;;;;;;;19.36;100.00;100531.34;5317247;28;20035;-69
2023/07/28 06:56:52;;;;;;;23.05;16.77;;;;;;;19.32;100.00;100543.56;5312664;28;20028;-68
2023/07/28 06:59:24;;;;;;;27.13;16.67;;;;;;;19.31;100.00;100535.63;5317451;27;20027;-69
2023/07/28 07:01:55;;;;;;;24.83;16.38;;;;;;;19.32;100.00;100546.28;5320073;28;20055;-69
2023/07/28 07:04:26;;;;;;;25.30;15.98;;;;;;;19.31;100.00;100544.59;5318218;28;20416;-69
2023/07/28 07:06:58;;;;;;;25.77;15.95;;;;;;;19.35;100.00;100545.09;5315618;28;20028;-69
2023/07/28 07:09:29;;;;;;;22.58;15.38;;;;;;;19.42;100.00;100550.59;5317729;28;20043;-69
2023/07/28 07:12:00;;;;;;;23.50;14.32;;;;;;;19.41;100.00;100549.75;5320488;28;20028;-69
2023/07/28 07:14:32;;;;;;;20.67;14.30;;;;;;;19.46;100.00;100555.44;5317192;28;20111;-68
2023/07/28 07:17:03;;;;;;;24.77;14.13;;;;;;;19.47;100.00;100559.00;5319759;28;20122;-69
2023/07/28 07:19:35;;;;;;;22.65;15.05;;;;;;;19.46;100.00;100554.59;5317956;28;20106;-69
2023/07/28 07:22:06;;;;;;;23.95;14.63;;;;;;;19.47;100.00;100561.72;5318174;27;20118;-69
2023/07/28 07:24:38;;;;;;;19.63;13.55;;;;;;;19.43;100.00;100558.53;5313911;28;20071;-69
2023/07/28 07:27:10;;;;;;;19.85;12.63;;;;;;;19.52;100.00;100562.00;5319459;28;20106;-69
2023/07/28 07:29:42;;;;;;;17.50;11.38;;;;;;;19.50;100.00;100555.91;5320867;28;20482;-69
2023/07/28 07:32:15;;;;;;;16.67;11.27;;;;;;;19.56;100.00;100568.75;5314862;28;20051;-69
2023/07/28 07:34:47;;;;;;;16.73;11.25;;;;;;;19.61;100.00;100563.59;5314024;28;20031;-69
2023/07/28 07:37:18;;;;;;;14.98;11.35;;;;;;;19.63;100.00;100566.97;5314679;28;20531;-69
2023/07/28 07:39:50;;;;;;;17.13;10.77;;;;;;;19.60;100.00;100561.94;5318336;27;20141;-69
2023/07/28 07:42:21;;;;;;;16.02;10.93;;;;;;;19.64;100.00;100573.25;5317333;27;20489;-69
2023/07/28 07:44:53;;;;;;;15.48;10.65;;;;;;;19.61;100.00;100570.88;5311352;28;20582;-69
2023/07/28 07:47:24;;;;;;;13.60;9.38;;;;;;;19.67;100.00;100575.56;5314659;28;20032;-70
2023/07/28 07:49:55;;;;;;;12.55;9.45;;;;;;;19.74;100.00;100576.56;5314778;28;20401;-69
2023/07/28 07:52:27;;;;;;;15.40;9.48;;;;;;;19.76;100.00;100574.50;5317613;28;20374;-69
2023/07/28 07:54:58;;;;;;;11.70;9.45;;;;;;;19.82;100.00;100581.03;5316179;28;20681;-69
2023/07/28 07:57:30;;;;;;;13.07;9.90;;;;;;;19.82;100.00;100578.34;5315982;28;20118;-69
2023/07/28 08:00:01;;;;;;;14.02;9.93;;;;;;;19.77;100.00;100576.16;5328771;27;20023;-69
2023/07/28 08:02:32;;;;;;;11.73;9.25;;;;;;;19.81;100.00;100574.78;5313907;27;20024;-69
2023/07/28 08:05:04;;;;;;;13.50;9.35;;;;;;;19.82;100.00;100576.47;5301484;28;20512;-69
2023/07/28 08:07:36;;;;;;;12.45;8.70;;;;;;;19.85;100.00;100577.94;5314237;28;20028;-67
2023/07/28 08:10:07;;;;;;;11.43;8.95;;;;;;;19.79;100.00;100582.25;5311100;28;20031;-69
2023/07/28 08:12:41;;;;;;;11.38;8.65;;;;;;;19.77;100.00;100585.16;5313779;27;20023;-69
2023/07/28 08:15:13;;;;;;;11.98;8.93;;;;;;;19.81;100.00;100588.34;5311019;28;20061;-69
2023/07/28 08:17:45;;;;;;;14.43;9.73;;;;;;;19.87;100.00;100592.16;5313969;28;20461;-69
2023/07/28 08:20:16;;;;;;;11.52;9.63;;;;;;;19.98;100.00;100595.25;5317224;28;20549;-69
2023/07/28 08:22:48;;;;;;;11.82;8.73;;;;;;;19.97;100.00;100596.28;5315981;28;20028;-69
2023/07/28 08:25:19;;;;;;;10.90;7.95;;;;;;;19.99;100.00;100596.09;5313638;28;20426;-69
2023/07/28 08:27:50;;;;;;;10.18;7.53;;;;;;;19.96;100.00;100591.03;5301201;28;20020;-69
2023/07/28 08:30:22;;;;;;;8.88;7.97;;;;;;;19.90;100.00;100589.06;5314225;28;20044;-69
2023/07/28 08:32:53;;;;;;;10.73;7.78;;;;;;;19.96;100.00;100600.03;5305671;28;20521;-69
2023/07/28 08:35:25;;;;;;;9.52;7.82;;;;;;;20.08;100.00;100603.13;5315040;28;20370;-69
2023/07/28 08:37:56;;;;;;;8.55;7.07;;;;;;;20.20;100.00;100600.78;5313864;28;20359;-69
2023/07/28 08:40:27;;;;;;;7.00;6.18;;;;;;;20.25;100.00;100598.34;5315460;28;20032;-69
2023/07/28 08:42:59;;;;;;;8.40;6.85;;;;;;;20.36;100.00;100602.44;5313675;28;20472;-69
2023/07/28 08:45:30;;;;;;;7.55;6.72;;;;;;;20.50;100.00;100607.03;5316367;28;20032;-69
2023/07/28 08:48:01;;;;;;;7.22;6.22;;;;;;;20.62;100.00;100612.00;5317695;27;20045;-69
2023/07/28 08:50:33;;;;;;;7.53;6.35;;;;;;;20.74;100.00;100610.47;5325629;27;20061;-69
2023/07/28 08:53:04;;;;;;;7.72;5.95;;;;;;;20.83;100.00;100608.50;5314360;28;20043;-69
2023/07/28 08:55:36;;;;;;;7.95;5.95;;;;;;;20.95;100.00;100601.53;5312375;28;20046;-69
2023/07/28 08:58:22;;;;;;;6.85;5.93;;;;;;;21.09;100.00;100599.81;5308987;28;20338;-69
2023/07/28 09:00:53;;;;;;;7.78;6.35;;;;;;;21.06;100.00;100608.34;5312379;28;20106;-69
2023/07/28 09:03:27;;;;;;;6.90;5.45;;;;;;;21.13;100.00;100604.69;5315289;28;20079;-69
2023/07/28 09:06:02;;;;;;;6.47;5.18;;;;;;;21.32;100.00;100600.50;5310937;28;20079;-70
2023/07/28 09:08:35;;;;;;;7.38;6.32;;;;;;;21.41;100.00;100609.31;5314578;28;20572;-70
2023/07/28 09:11:06;;;;;;;7.35;6.32;;;;;;;21.51;100.00;100596.28;5319373;28;20026;-69
2023/07/28 09:13:41;;;;;;;7.57;6.57;;;;;;;21.67;100.00;100603.31;5320968;27;20036;-70
2023/07/28 09:16:20;;;;;;;8.15;7.35;;;;;;;21.79;100.00;100598.19;5306258;28;20030;-70
2023/07/28 09:19:04;;;;;;;7.78;7.00;;;;;;;21.89;100.00;100600.56;5315064;28;20118;-70
2023/07/28 09:21:37;;;;;;;7.60;6.82;;;;;;;21.90;100.00;100594.09;5316746;28;20087;-69
2023/07/28 09:24:12;;;;;;;8.38;7.47;;;;;;;22.00;100.00;100602.72;5314369;28;20465;-70
2023/07/28 09:26:48;;;;;;;7.60;6.80;;;;;;;22.03;100.00;100599.59;5316724;28;20119;-70
2023/07/28 09:29:20;;;;;;;7.65;6.95;;;;;;;22.17;100.00;100597.84;5318860;28;20118;-69
2023/07/28 09:31:52;;;;;;;8.88;7.97;;;;;;;22.13;100.00;100593.84;5315438;28;20236;-69
2023/07/28 09:34:26;;;;;;;7.95;7.13;;;;;;;22.19;100.00;100597.63;5312802;28;20097;-70
2023/07/28 09:36:58;;;;;;;;;;;;;;;22.47;100.00;100595.69;5307136;28;20023;-70
2023/07/28 09:39:31;;;;;;;7.22;6.53;;;;;;;22.37;100.00;100587.09;5317244;28;20373;-70
2023/07/28 09:42:03;;;;;;;6.55;5.93;;;;;;;22.49;100.00;100599.09;5314007;28;20028;-70
2023/07/28 09:44:35;;;;;;;7.03;6.28;;;;;;;22.60;100.00;100597.66;5313555;28;20038;-70
2023/07/28 09:47:07;;;;;;;6.80;6.20;;;;;;;22.71;100.00;100598.97;5315842;28;20019;-70
2023/07/28 09:49:48;;;;;;;7.35;6.65;;;;;;;22.74;100.00;100600.44;5310379;28;20059;-70
2023/07/28 09:52:22;;;;;;;7.07;6.40;;;;;;;22.74;100.00;100605.88;5315912;28;20063;-70
2023/07/28 09:54:58;;;;;;;6.80;6.10;;;;;;;22.67;100.00;100603.97;5313967;28;20031;-70
2023/07/28 09:57:33;;;;;;;5.47;4.97;;;;;;;22.69;100.00;100598.31;5314633;28;20409;-70
2023/07/28 10:00:07;;;;;;;7.25;5.47;;;;;;;22.66;100.00;100610.44;5311207;28;20132;-70
2023/07/28 10:02:40;;;;;;;4.40;4.00;;;;;;;22.70;100.00;100600.84;5306966;28;20019;-70
2023/07/28 10:05:12;;;;;;;4.57;3.70;;;;;;;22.69;100.00;100598.31;5323099;28;20377;-70
2023/07/28 10:07:44;;;;;;;3.95;3.55;;;;;;;22.68;100.00;100602.06;5311490;28;20422;-70
2023/07/28 10:10:17;;;;;;;3.97;3.58;;;;;;;22.80;100.00;100599.59;5313270;28;20418;-70
2023/07/28 10:12:50;;;;;;;4.57;4.18;;;;;;;22.67;100.00;100606.69;5316839;28;20110;-70
2023/07/28 10:15:28;;;;;;;5.03;4.22;;;;;;;22.77;100.00;100605.47;5316358;28;20485;-69
2023/07/28 10:18:00;;;;;;;4.72;3.83;;;;;;;22.74;100.00;100606.69;5309361;28;20055;-69
2023/07/28 10:20:35;;;;;;;4.97;4.53;;;;;;;22.80;100.00;100605.91;5319380;28;20084;-70
2023/07/28 10:23:15;;;;;;;5.45;4.53;;;;;;;22.93;100.00;100609.69;5310602;28;20029;-70
2023/07/28 10:25:46;;;;;;;4.63;4.22;;;;;;;22.97;100.00;100609.06;5304996;28;20656;-70
2023/07/28 10:28:40;;;;;;;5.78;4.00;;;;;;;23.17;100.00;100613.78;5317822;28;20035;-69
2023/07/28 10:31:12;;;;;;;4.93;4.43;;;;;;;23.10;100.00;100611.88;5317100;28;20063;-70
2023/07/28 10:33:44;;;;;;;4.00;3.60;;;;;;;23.14;100.00;100606.03;5315894;28;20118;-70
2023/07/28 10:36:22;;;;;;;3.95;3.55;;;;;;;23.17;100.00;100606.44;5319015;28;20110;-70
2023/07/28 10:39:03;;;;;;;3.58;2.70;;;;;;;23.23;100.00;100611.06;5315749;28;20038;-70
2023/07/28 10:41:35;;;;;;;3.95;2.42;;;;;;;23.34;100.00;100606.03;5316124;28;20032;-70
2023/07/28 10:44:07;;;;;;;2.90;2.40;;;;;;;23.39;100.00;100601.66;5320035;28;20500;-70
2023/07/28 10:46:39;;;;;;;3.55;1.80;;;;;;;23.31;100.00;100590.97;5314446;28;20676;-70
2023/07/28 10:49:10;;;;;;;2.97;2.05;;;;;;;23.25;100.00;100597.25;5313158;28;20098;-70
2023/07/28 10:51:42;;;;;;;3.67;2.30;;;;;;;23.45;100.00;100597.25;5315122;28;20670;-70
2023/07/28 10:54:16;;;;;;;3.20;2.15;;;;;;;23.28;100.00;100597.69;5319121;28;20226;-70
2023/07/28 10:56:48;;;;;;;3.75;2.58;;;;;;;23.38;100.00;100588.28;5321276;28;20138;-70
2023/07/28 10:59:20;;;;;;;3.78;2.50;;;;;;;23.41;100.00;100593.28;5322191;27;20035;-70
2023/07/28 11:01:52;;;;;;;3.10;2.10;;;;;;;23.39;100.00;100581.75;5318818;28;20041;-70
2023/07/28 11:04:24;;;;;;;4.97;2.13;;;;;;;23.50;100.00;100597.47;5317069;27;20024;-70
2023/07/28 11:06:55;;;;;;;3.13;2.10;;;;;;;23.68;100.00;100583.22;5311221;28;20027;-70
2023/07/28 11:09:26;;;;;;;2.80;2.13;;;;;;;23.74;100.00;100587.00;5314937;28;20077;-70
2023/07/28 11:11:58;;;;;;;3.50;2.30;;;;;;;23.78;100.00;100577.34;5315465;28;20061;-70
2023/07/28 11:14:29;;;;;;;3.50;2.60;;;;;;;23.66;100.00;100588.03;5319334;28;20051;-70
2023/07/28 11:17:02;;;;;;;3.42;1.95;;;;;;;23.52;100.00;100583.66;5312790;28;20454;-70
2023/07/28 11:19:33;;;;;;;3.33;1.88;;;;;;;23.46;100.00;100583.44;5317740;28;20024;-70
2023/07/28 11:22:06;;;;;;;3.45;1.60;;;;;;;23.34;100.00;100579.69;5311907;28;20386;-70
2023/07/28 11:24:37;;;;;;;3.17;1.80;;;;;;;23.28;100.00;100578.63;5314965;28;20431;-70
2023/07/28 11:27:09;;;;;;;2.95;1.55;;;;;;;23.25;100.00;100575.47;5318265;28;20015;-70
2023/07/28 11:29:41;;;;;;;2.10;1.30;;;;;;;23.22;100.00;100582.19;5318387;28;20031;-70
2023/07/28 11:32:15;;;;;;;2.40;1.58;;;;;;;23.22;100.00;100579.47;5317491;28;20024;-70